Time;durP1;ratioP1;P1;durP2;ratioP2;P2;SDS_P1;SDS_P2;PMS_P1;PMS_P2;Temp;Humidity;BMP_temperature;BMP_pressure;BME280_temperature;BME280_humidity;BME280_pressure;Samples;Min_cycle;Max_cycle;Signal;HPM_P1;HPM_P2
2023/07/27 00:02:47;;;;;;;5.85;3.33;;;15.60;99.90;;;;;;7284834;32;20112;-56
2023/07/27 00:06:49;;;;;;;6.45;3.55;;;15.60;99.90;;;;;;7287398;32;20111;-57
2023/07/27 00:10:50;;;;;;;7.65;3.55;;;15.60;99.90;;;;;;7279861;32;20218;-57
2023/07/27 00:14:52;;;;;;;5.47;3.55;;;15.60;99.90;;;;;;7290325;32;20131;-55
2023/07/27 00:18:54;;;;;;;9.13;3.53;;;15.60;99.90;;;;;;7287582;32;20108;-56
2023/07/27 00:22:56;;;;;;;4.62;3.28;;;15.60;99.90;;;;;;7280784;32;20126;-56
2023/07/27 00:26:57;;;;;;;4.93;3.33;;;15.70;99.90;;;;;;7285446;32;20182;-56
2023/07/27 00:30:59;;;;;;;4.43;3.40;;;15.70;99.90;;;;;;7287379;32;20604;-56
2023/07/27 00:35:01;;;;;;;6.95;3.53;;;15.60;99.90;;;;;;7286175;32;20562;-56
2023/07/27 00:39:03;;;;;;;4.70;2.95;;;15.70;99.90;;;;;;7287668;32;20116;-56
2023/07/27 00:43:04;;;;;;;6.10;3.28;;;15.60;99.90;;;;;;7297413;32;20178;-56
2023/07/27 00:47:06;;;;;;;3.87;3.15;;;15.60;99.90;;;;;;7285578;32;20272;-56
2023/07/27 00:51:10;;;;;;;5.68;3.45;;;15.60;99.90;;;;;;7279405;32;20168;-57
2023/07/27 00:55:12;;;;;;;7.12;3.10;;;15.60;99.90;;;;;;7279226;32;20158;-56
2023/07/27 00:59:14;;;;;;;5.53;3.05;;;15.60;99.90;;;;;;7280172;32;20239;-55
2023/07/27 01:03:15;;;;;;;5.50;3.03;;;15.70;99.90;;;;;;7294739;32;20171;-56
2023/07/27 01:07:17;;;;;;;3.75;3.03;;;15.70;99.90;;;;;;7279846;32;20112;-56
2023/07/27 01:11:34;;;;;;;7.22;3.12;;;15.60;99.90;;;;;;7283952;32;20193;-55
2023/07/27 01:15:43;;;;;;;4.75;3.10;;;15.70;99.90;;;;;;7282119;32;20169;-55
2023/07/27 01:20:24;;;;;;;4.55;2.75;;;15.80;99.90;;;;;;7280936;32;20270;-56
2023/07/27 01:24:56;;;;;;;6.93;2.65;;;15.80;99.90;;;;;;7264399;32;20567;-56
2023/07/27 01:29:04;;;;;;;4.93;2.97;;;15.80;99.90;;;;;;7284674;32;20503;-57
2023/07/27 01:33:09;;;;;;;;;;;15.80;99.90;;;;;;7283863;32;20181;-56
2023/07/27 01:37:15;;;;;;;5.60;3.10;;;15.80;99.90;;;;;;7279052;32;20448;-56
2023/07/27 01:41:18;;;;;;;5.35;3.00;;;15.90;99.90;;;;;;7281893;32;20536;-56
2023/07/27 01:45:22;;;;;;;5.62;3.00;;;15.90;99.90;;;;;;7278038;32;20169;-56
2023/07/27 01:49:24;;;;;;;7.40;3.40;;;15.90;99.90;;;;;;7278180;32;20756;-56
2023/07/27 01:53:28;;;;;;;6.70;3.15;;;15.90;99.90;;;;;;7278232;32;20247;-56
2023/07/27 01:57:30;;;;;;;5.55;3.20;;;15.90;99.90;;;;;;7289766;32;20605;-56
2023/07/27 02:01:33;;;;;;;5.82;3.00;;;15.90;99.90;;;;;;7290864;32;20776;-56
2023/07/27 02:05:35;;;;;;;5.82;3.35;;;15.70;99.90;;;;;;7280115;32;20135;-57
2023/07/27 02:09:37;;;;;;;5.43;3.40;;;15.70;99.90;;;;;;7282581;32;20126;-57
2023/07/27 02:13:47;;;;;;;4.72;2.87;;;15.70;99.90;;;;;;7288170;32;20168;-57
2023/07/27 02:17:54;;;;;;;5.07;3.67;;;15.60;99.90;;;;;;7282397;32;20105;-56
2023/07/27 02:21:57;;;;;;;6.82;3.12;;;15.50;99.90;;;;;;7286599;32;20177;-56
2023/07/27 02:25:58;;;;;;;3.60;3.28;;;15.50;99.90;;;;;;7283708;32;20199;-56
2023/07/27 02:30:01;;;;;;;7.32;3.95;;;15.40;99.90;;;;;;7288037;32;20139;-56
2023/07/27 02:34:03;;;;;;;3.90;3.12;;;15.40;99.90;;;;;;7287136;32;20416;-56
2023/07/27 02:38:04;;;;;;;8.00;3.83;;;15.30;99.90;;;;;;7285517;32;20173;-57
2023/07/27 02:42:06;;;;;;;7.72;4.03;;;15.30;99.90;;;;;;7282157;32;20533;-55
2023/07/27 02:46:08;;;;;;;6.15;4.18;;;15.20;99.90;;;;;;7281677;32;20218;-56
2023/07/27 02:50:10;;;;;;;6.10;3.87;;;15.20;99.90;;;;;;7293270;32;20135;-56
2023/07/27 02:54:12;;;;;;;7.93;4.00;;;15.10;99.90;;;;;;7281942;32;20147;-56
2023/07/27 02:58:13;;;;;;;7.45;4.12;;;15.00;99.90;;;;;;7287725;32;20201;-56
2023/07/27 03:02:15;;;;;;;7.40;3.60;;;15.00;99.90;;;;;;7287955;32;20167;-56
2023/07/27 03:06:17;;;;;;;8.00;4.03;;;14.90;99.90;;;;;;7299724;32;20134;-55
2023/07/27 03:10:19;;;;;;;8.02;4.25;;;14.80;99.90;;;;;;7282232;32;20105;-57
2023/07/27 03:14:21;;;;;;;6.72;4.32;;;14.80;99.90;;;;;;7284461;32;20200;-57
2023/07/27 03:18:22;;;;;;;5.30;3.60;;;14.80;99.90;;;;;;7287501;32;20134;-56
2023/07/27 03:22:24;;;;;;;7.97;4.47;;;14.80;99.90;;;;;;7287452;32;20201;-56
2023/07/27 03:26:26;;;;;;;7.47;4.20;;;14.70;99.90;;;;;;7299324;32;20108;-56
2023/07/27 03:30:28;;;;;;;7.30;4.30;;;14.60;99.90;;;;;;7267274;32;20112;-57
2023/07/27 03:34:29;;;;;;;10.35;4.70;;;14.60;99.90;;;;;;7289020;32;20124;-57
2023/07/27 03:38:32;;;;;;;5.65;4.10;;;14.50;99.90;;;;;;7286827;32;20623;-56
2023/07/27 03:42:34;;;;;;;6.22;4.20;;;14.50;99.90;;;;;;7293289;32;20457;-56
2023/07/27 03:46:35;;;;;;;6.70;4.75;;;14.50;99.90;;;;;;7280058;32;20143;-56
2023/07/27 03:50:38;;;;;;;7.53;4.57;;;14.50;99.90;;;;;;7307724;32;20257;-56
2023/07/27 03:54:39;;;;;;;8.90;4.30;;;14.40;99.90;;;;;;7297877;32;20138;-57
2023/07/27 03:58:41;;;;;;;4.97;4.18;;;14.50;99.90;;;;;;7298324;32;20283;-57
2023/07/27 04:02:43;;;;;;;8.15;4.60;;;14.40;99.90;;;;;;7302707;32;20175;-56
2023/07/27 04:06:45;;;;;;;6.32;4.60;;;14.50;99.90;;;;;;7297716;32;20491;-57
2023/07/27 04:10:47;;;;;;;6.03;4.75;;;14.40;99.90;;;;;;7306450;32;20259;-56
2023/07/27 04:14:48;;;;;;;7.47;4.20;;;14.40;99.90;;;;;;7279456;32;20507;-57
2023/07/27 04:18:50;;;;;;;7.75;4.75;;;14.40;99.90;;;;;;7318077;32;20207;-57
2023/07/27 04:22:52;;;;;;;7.65;5.35;;;14.40;99.90;;;;;;7290444;32;20115;-56
2023/07/27 04:26:54;;;;;;;9.02;4.68;;;14.40;99.90;;;;;;7293826;32;20124;-56
2023/07/27 04:30:55;;;;;;;8.10;4.80;;;14.40;99.90;;;;;;7288452;32;20156;-56
2023/07/27 04:34:57;;;;;;;15.27;5.43;;;14.40;99.90;;;;;;7298258;32;20130;-57
2023/07/27 04:38:59;;;;;;;8.65;4.95;;;14.40;99.90;;;;;;7292520;32;20173;-57
2023/07/27 04:43:00;;;;;;;6.75;4.53;;;14.30;99.90;;;;;;7305283;32;20119;-57
2023/07/27 04:47:02;;;;;;;7.95;5.15;;;14.40;99.90;;;;;;7307504;32;20116;-57
2023/07/27 04:51:04;;;;;;;7.10;4.37;;;14.30;99.90;;;;;;7275303;32;20126;-57
2023/07/27 04:55:06;;;;;;;10.65;5.30;;;14.40;99.90;;;;;;7293794;32;20176;-57
2023/07/27 04:59:08;;;;;;;8.18;5.40;;;14.30;99.90;;;;;;7308501;32;20442;-58
2023/07/27 05:03:10;;;;;;;10.07;5.78;;;14.30;99.90;;;;;;7276469;32;20147;-57
2023/07/27 05:07:11;;;;;;;8.60;5.05;;;14.30;99.90;;;;;;7274049;32;20584;-57
2023/07/27 05:11:13;;;;;;;12.40;5.43;;;14.30;99.90;;;;;;7280752;32;20135;-57
2023/07/27 05:15:15;;;;;;;7.75;5.70;;;14.30;99.90;;;;;;7281628;32;20180;-57
2023/07/27 05:19:17;;;;;;;6.82;4.75;;;14.30;99.90;;;;;;7286550;32;20148;-57
2023/07/27 05:23:18;;;;;;;9.20;5.12;;;14.30;99.90;;;;;;7281210;32;20568;-59
2023/07/27 05:27:20;;;;;;;11.05;4.72;;;14.30;99.90;;;;;;7281527;32;20181;-56
2023/07/27 05:31:22;;;;;;;8.00;4.60;;;14.20;99.90;;;;;;7279036;32;20266;-57
2023/07/27 05:35:23;;;;;;;6.47;4.20;;;14.20;99.90;;;;;;7280702;32;20130;-57
2023/07/27 05:39:25;;;;;;;6.30;4.05;;;14.20;99.90;;;;;;7285929;32;20135;-57
2023/07/27 05:43:27;;;;;;;7.75;4.57;;;14.30;99.90;;;;;;7298402;32;20111;-57
2023/07/27 05:47:29;;;;;;;9.00;4.47;;;14.20;99.90;;;;;;7282963;32;20135;-57
2023/07/27 05:51:31;;;;;;;9.05;4.70;;;14.20;99.90;;;;;;7284422;32;20172;-57
2023/07/27 05:55:33;;;;;;;8.52;4.65;;;14.20;99.90;;;;;;7283682;32;20573;-57
2023/07/27 05:59:35;;;;;;;6.18;4.78;;;14.30;99.90;;;;;;7282809;32;20261;-57
2023/07/27 06:03:37;;;;;;;7.28;4.80;;;14.20;99.90;;;;;;7282694;32;20491;-57
2023/07/27 06:07:38;;;;;;;8.30;4.93;;;14.30;99.90;;;;;;7283283;32;20761;-58
2023/07/27 06:11:40;;;;;;;7.12;4.15;;;14.30;99.90;;;;;;7282259;32;20574;-57
2023/07/27 06:15:48;;;;;;;6.95;4.28;;;14.30;99.90;;;;;;7292739;32;20202;-57
2023/07/27 06:19:50;;;;;;;8.70;4.55;;;14.30;99.90;;;;;;7286052;32;20224;-57
2023/07/27 06:23:51;;;;;;;5.62;4.40;;;14.30;99.90;;;;;;7288643;32;20215;-57
2023/07/27 06:27:53;;;;;;;6.90;4.43;;;14.30;99.90;;;;;;7276323;32;20576;-57
2023/07/27 06:31:55;;;;;;;5.70;4.60;;;14.40;99.90;;;;;;7284614;32;20136;-56
2023/07/27 06:35:57;;;;;;;7.60;4.80;;;14.60;99.90;;;;;;7281277;32;20172;-57
2023/07/27 06:39:59;;;;;;;7.53;4.12;;;14.50;99.90;;;;;;7282702;32;20153;-57
2023/07/27 06:44:01;;;;;;;6.35;4.62;;;14.50;99.90;;;;;;7282026;32;20278;-57
2023/07/27 06:48:03;;;;;;;7.07;4.22;;;14.60;99.90;;;;;;7284022;32;20095;-58
2023/07/27 06:52:08;;;;;;;6.37;4.45;;;14.70;99.90;;;;;;7284786;32;20509;-57
2023/07/27 06:56:11;;;;;;;4.97;3.67;;;14.70;99.90;;;;;;7281721;32;20151;-57
2023/07/27 07:00:13;;;;;;;4.87;3.83;;;14.60;99.90;;;;;;7284330;32;20199;-57
2023/07/27 07:04:15;;;;;;;4.53;4.07;;;14.70;99.90;;;;;;7283871;32;20135;-57
2023/07/27 07:08:17;;;;;;;4.18;3.40;;;14.80;99.90;;;;;;7282036;32;20105;-56
2023/07/27 07:12:19;;;;;;;6.03;3.90;;;14.80;99.90;;;;;;7287658;32;20104;-57
2023/07/27 07:16:21;;;;;;;4.18;3.42;;;14.90;99.90;;;;;;7286452;32;20903;-56
2023/07/27 07:20:23;;;;;;;4.53;3.17;;;14.90;99.90;;;;;;7288447;32;20650;-56
2023/07/27 07:24:25;;;;;;;5.80;4.10;;;15.00;99.90;;;;;;7289162;32;20108;-57
2023/07/27 07:28:26;;;;;;;5.87;3.53;;;15.00;99.90;;;;;;7280665;32;20101;-58
2023/07/27 07:32:28;;;;;;;4.12;3.60;;;15.00;99.90;;;;;;7286165;32;20255;-58
2023/07/27 07:36:30;;;;;;;3.85;3.45;;;15.00;99.90;;;;;;7285470;32;20823;-58
2023/07/27 07:40:32;;;;;;;4.35;3.80;;;15.10;99.90;;;;;;7281828;32;20195;-58
2023/07/27 07:44:34;;;;;;;5.72;3.47;;;15.20;99.90;;;;;;7287448;32;20592;-57
2023/07/27 07:48:36;;;;;;;6.45;3.53;;;15.10;99.90;;;;;;7280802;32;20822;-57
2023/07/27 07:52:38;;;;;;;5.30;3.65;;;15.20;99.90;;;;;;7284885;32;20124;-57
2023/07/27 07:56:39;;;;;;;4.20;3.55;;;15.30;99.90;;;;;;7283495;32;20178;-57
2023/07/27 08:00:42;;;;;;;4.03;3.62;;;15.30;99.90;;;;;;7284962;32;20199;-57
2023/07/27 08:04:44;;;;;;;4.50;3.60;;;15.40;99.90;;;;;;7283468;32;20096;-57
2023/07/27 08:08:46;;;;;;;4.03;3.40;;;15.30;99.90;;;;;;7287324;32;20595;-58
2023/07/27 08:12:49;;;;;;;4.57;3.75;;;15.40;99.90;;;;;;7292246;32;20104;-58
2023/07/27 08:16:51;;;;;;;4.53;3.47;;;15.40;99.90;;;;;;7282981;32;20513;-57
2023/07/27 08:21:04;;;;;;;4.70;3.05;;;15.50;99.90;;;;;;7286186;32;20312;-58
2023/07/27 08:25:06;;;;;;;3.67;2.67;;;15.60;99.90;;;;;;7289109;32;20116;-58
2023/07/27 08:29:21;;;;;;;3.95;2.60;;;15.60;99.90;;;;;;7290326;32;20127;-58
2023/07/27 08:33:23;;;;;;;2.97;2.58;;;15.70;99.90;;;;;;7285142;32;20231;-58
2023/07/27 08:37:25;;;;;;;4.50;2.50;;;15.70;99.90;;;;;;7275227;32;20104;-57
2023/07/27 08:41:28;;;;;;;2.45;2.20;;;15.80;99.90;;;;;;7283769;32;20439;-59
2023/07/27 08:45:30;;;;;;;2.08;1.87;;;15.80;99.90;;;;;;7284959;32;20119;-58
2023/07/27 08:49:33;;;;;;;6.65;1.92;;;15.80;99.90;;;;;;7281784;32;20097;-56
2023/07/27 08:53:35;;;;;;;2.90;2.15;;;15.90;99.90;;;;;;7272001;32;20096;-58
2023/07/27 08:57:37;;;;;;;2.45;2.00;;;15.90;99.90;;;;;;7282539;32;20119;-58
2023/07/27 09:01:38;;;;;;;4.82;1.80;;;15.90;99.90;;;;;;7282637;32;20225;-58
2023/07/27 09:05:43;;;;;;;2.28;1.73;;;16.00;99.90;;;;;;7286602;32;20491;-58
2023/07/27 09:09:52;;;;;;;1.98;1.58;;;16.10;99.90;;;;;;7287368;32;20174;-57
2023/07/27 09:14:01;;;;;;;2.05;1.42;;;16.10;99.90;;;;;;7285403;32;20191;-58
2023/07/27 09:18:09;;;;;;;2.78;1.15;;;16.10;99.90;;;;;;7285844;32;20548;-57
2023/07/27 09:22:12;;;;;;;1.30;1.17;;;16.10;99.90;;;;;;7291075;32;20517;-57
2023/07/27 09:26:24;;;;;;;2.15;1.30;;;16.20;99.90;;;;;;7271703;32;20560;-57
2023/07/27 09:30:26;;;;;;;1.40;1.20;;;16.20;99.90;;;;;;7283227;32;20143;-57
2023/07/27 09:34:29;;;;;;;2.03;1.30;;;16.20;99.90;;;;;;7285082;32;20250;-58
2023/07/27 09:38:31;;;;;;;3.08;1.40;;;16.20;99.90;;;;;;7287061;32;20119;-57
2023/07/27 09:42:33;;;;;;;2.83;1.33;;;16.40;99.90;;;;;;7276010;32;20451;-57
2023/07/27 09:46:34;;;;;;;1.52;1.33;;;16.40;99.90;;;;;;7271990;32;20130;-57
2023/07/27 09:50:37;;;;;;;3.03;1.40;;;16.40;99.90;;;;;;7284466;32;20108;-57
2023/07/27 09:54:39;;;;;;;2.08;1.48;;;16.40;99.90;;;;;;7290609;32;20479;-56
2023/07/27 09:58:43;;;;;;;2.78;1.80;;;16.50;99.90;;;;;;7286982;32;20201;-57
2023/07/27 10:02:44;;;;;;;5.75;1.83;;;16.60;99.90;;;;;;7283336;32;20177;-57
2023/07/27 10:06:46;;;;;;;4.25;2.00;;;16.60;99.90;;;;;;7264023;32;20147;-57
2023/07/27 10:10:57;;;;;;;3.08;1.60;;;16.70;99.90;;;;;;7283194;32;20510;-58
2023/07/27 10:15:19;;;;;;;3.15;1.90;;;16.60;99.90;;;;;;7287324;32;20103;-56
2023/07/27 10:19:21;;;;;;;2.72;1.98;;;16.70;99.90;;;;;;7283741;32;20281;-56
2023/07/27 10:23:27;;;;;;;2.75;2.10;;;16.70;99.90;;;;;;7286383;32;20432;-55
2023/07/27 10:27:56;;;;;;;4.93;2.80;;;16.80;99.90;;;;;;7286879;32;20161;-56
2023/07/27 10:32:10;;;;;;;3.87;2.25;;;17.00;99.90;;;;;;7287403;32;20494;-58
2023/07/27 10:36:13;;;;;;;4.20;2.95;;;17.00;99.90;;;;;;7281969;32;20544;-59
2023/07/27 10:40:24;;;;;;;5.07;3.10;;;17.00;99.90;;;;;;7281171;32;20826;-57
2023/07/27 10:44:45;;;;;;;4.60;3.10;;;17.00;99.90;;;;;;7295123;32;20116;-57
2023/07/27 10:48:58;;;;;;;3.83;3.08;;;17.00;99.90;;;;;;7289068;32;20411;-57
2023/07/27 10:52:59;;;;;;;5.50;3.08;;;17.00;99.90;;;;;;7283459;32;20101;-58
2023/07/27 10:57:04;;;;;;;5.07;3.33;;;17.10;99.90;;;;;;7283773;32;20131;-57
2023/07/27 11:01:05;;;;;;;5.82;3.35;;;17.20;99.90;;;;;;7288693;32;20145;-57
2023/07/27 11:05:08;;;;;;;5.62;3.55;;;17.30;99.90;;;;;;7283167;32;20105;-57
2023/07/27 11:09:16;;;;;;;4.60;2.95;;;17.40;99.90;;;;;;7282436;32;20123;-59
2023/07/27 11:13:22;;;;;;;6.18;3.12;;;17.40;99.90;;;;;;7289056;32;20095;-59
2023/07/27 11:17:24;;;;;;;3.92;3.10;;;17.40;99.90;;;;;;7271316;32;20704;-57
2023/07/27 11:21:26;;;;;;;5.72;3.50;;;17.40;99.90;;;;;;7285327;32;20718;-57
2023/07/27 11:25:34;;;;;;;5.37;3.67;;;17.50;99.90;;;;;;7266463;32;20267;-58
2023/07/27 11:29:39;;;;;;;3.92;3.22;;;17.50;99.90;;;;;;7281084;32;20220;-58
2023/07/27 11:33:41;;;;;;;4.50;2.72;;;17.60;99.90;;;;;;7293044;32;20552;-57
2023/07/27 11:37:43;;;;;;;4.07;2.90;;;17.60;99.90;;;;;;7285551;32;20092;-58
2023/07/27 11:41:47;;;;;;;3.62;2.20;;;17.80;99.90;;;;;;7279802;32;20426;-58
2023/07/27 11:45:54;;;;;;;3.72;2.30;;;17.90;99.90;;;;;;7280374;32;20096;-59
2023/07/27 11:49:56;;;;;;;2.57;1.90;;;17.90;99.90;;;;;;7271870;32;20259;-56
2023/07/27 11:53:58;;;;;;;2.85;1.45;;;17.90;99.90;;;;;;7280607;32;20108;-57
2023/07/27 11:58:00;;;;;;;4.22;1.30;;;17.70;99.90;;;;;;7284452;32;20410;-58
2023/07/27 12:02:02;;;;;;;1.00;0.80;;;17.80;99.90;;;;;;7264736;32;20109;-58
2023/07/27 12:06:04;;;;;;;1.37;1.10;;;17.90;99.90;;;;;;7283554;32;20230;-58
2023/07/27 12:10:11;;;;;;;4.12;1.30;;;18.10;99.90;;;;;;7285679;32;20268;-58
2023/07/27 12:14:20;;;;;;;1.42;1.15;;;17.90;99.90;;;;;;7286734;32;20119;-58
2023/07/27 12:18:30;;;;;;;2.83;1.60;;;17.90;99.90;;;;;;7278856;32;20197;-59
2023/07/27 12:22:51;;;;;;;2.05;1.70;;;17.90;99.90;;;;;;7266206;32;20266;-57
2023/07/27 12:26:53;;;;;;;2.90;1.62;;;18.00;99.90;;;;;;7278566;32;20123;-58
2023/07/27 12:30:58;;;;;;;3.30;2.45;;;17.90;99.90;;;;;;7275579;32;20104;-58
2023/07/27 12:35:03;;;;;;;2.47;2.05;;;17.90;99.90;;;;;;7282722;32;20122;-58
2023/07/27 12:39:08;;;;;;;2.50;1.95;;;18.00;99.90;;;;;;7283668;32;20116;-58
2023/07/27 12:43:11;;;;;;;6.80;2.60;;;18.00;99.90;;;;;;7284263;32;20124;-58
2023/07/27 12:47:12;;;;;;;5.00;2.42;;;18.00;99.90;;;;;;7266411;32;20136;-59
2023/07/27 12:51:14;;;;;;;5.35;2.58;;;18.10;99.90;;;;;;7279194;32;20978;-58
2023/07/27 12:55:16;;;;;;;1.50;1.20;;;18.10;99.90;;;;;;7278117;32;20189;-57
2023/07/27 12:59:18;;;;;;;1.95;1.10;;;18.10;99.90;;;;;;7283324;32;20127;-57
2023/07/27 13:03:20;;;;;;;1.87;1.00;;;18.10;99.90;;;;;;7278182;32;20175;-57
2023/07/27 13:07:22;;;;;;;2.03;0.73;;;18.00;99.90;;;;;;7280332;32;20122;-57
2023/07/27 13:11:24;;;;;;;1.55;0.82;;;18.00;99.90;;;;;;7277911;32;20096;-58
2023/07/27 13:15:25;;;;;;;2.03;1.40;;;18.10;99.90;;;;;;7286870;32;20112;-57
2023/07/27 13:19:27;;;;;;;2.75;1.23;;;18.10;99.90;;;;;;7277002;32;20122;-57
2023/07/27 13:23:29;;;;;;;1.92;1.50;;;18.20;99.90;;;;;;7278398;32;20104;-57
2023/07/27 13:27:31;;;;;;;1.42;1.12;;;18.20;99.90;;;;;;7279888;32;20195;-58
2023/07/27 13:31:33;;;;;;;3.12;1.12;;;18.30;99.90;;;;;;7278156;32;20200;-57
2023/07/27 13:35:37;;;;;;;1.30;0.93;;;18.20;99.90;;;;;;7283644;32;20101;-57
2023/07/27 13:39:39;;;;;;;1.35;1.00;;;18.20;99.90;;;;;;7277094;32;20099;-58
2023/07/27 13:43:41;;;;;;;3.40;1.15;;;18.10;99.90;;;;;;7284577;32;20270;-58
2023/07/27 13:47:43;;;;;;;3.47;0.90;;;18.20;99.90;;;;;;7281106;32;20193;-58
2023/07/27 13:52:05;;;;;;;1.92;1.10;;;18.10;99.90;;;;;;7284867;32;20624;-57
2023/07/27 13:56:06;;;;;;;1.05;0.80;;;18.20;99.90;;;;;;7276624;32;20592;-57
2023/07/27 14:00:10;;;;;;;2.05;0.88;;;18.20;99.90;;;;;;7278949;32;20216;-58
2023/07/27 14:04:15;;;;;;;3.22;0.75;;;18.40;99.90;;;;;;7281785;32;20690;-57
2023/07/27 14:08:17;;;;;;;1.75;0.90;;;18.40;99.90;;;;;;7281188;32;20100;-57
2023/07/27 14:12:19;;;;;;;1.83;1.10;;;18.40;99.90;;;;;;7281886;32;20123;-57
2023/07/27 14:16:20;;;;;;;1.00;0.70;;;18.40;99.90;;;;;;7289335;32;20122;-57
2023/07/27 14:20:22;;;;;;;2.97;0.70;;;18.30;99.90;;;;;;7281696;32;20199;-58
2023/07/27 14:24:24;;;;;;;1.10;0.40;;;18.20;99.90;;;;;;7281354;32;20570;-57
2023/07/27 14:28:26;;;;;;;1.33;0.40;;;18.20;99.90;;;;;;7282181;32;20192;-57
2023/07/27 14:32:29;;;;;;;2.05;0.68;;;18.10;99.90;;;;;;7298261;32;20108;-58
2023/07/27 14:36:31;;;;;;;1.30;0.47;;;18.20;99.90;;;;;;7286810;32;20223;-58
2023/07/27 14:40:33;;;;;;;1.15;0.40;;;18.20;99.90;;;;;;7286275;32;20142;-57
2023/07/27 14:44:37;;;;;;;1.05;0.60;;;18.30;99.90;;;;;;7281009;32;20122;-57
2023/07/27 14:48:39;;;;;;;1.37;0.40;;;18.30;99.90;;;;;;7280616;32;20641;-58
2023/07/27 14:52:41;;;;;;;1.02;0.80;;;18.30;99.90;;;;;;7280838;32;20109;-57
2023/07/27 14:56:45;;;;;;;2.25;0.55;;;18.30;99.90;;;;;;7281531;32;20167;-57
2023/07/27 15:00:47;;;;;;;1.52;0.50;;;18.20;99.90;;;;;;7280379;32;20112;-57
2023/07/27 15:04:51;;;;;;;1.27;0.68;;;18.20;99.90;;;;;;7281581;32;20146;-57
2023/07/27 15:08:55;;;;;;;0.60;0.60;;;18.10;99.90;;;;;;7283408;32;20109;-57
2023/07/27 15:12:58;;;;;;;2.55;0.77;;;18.10;99.90;;;;;;7285559;32;20154;-57
2023/07/27 15:17:00;;;;;;;1.45;0.80;;;18.10;99.90;;;;;;7290219;32;20100;-57
2023/07/27 15:21:02;;;;;;;1.30;0.80;;;18.20;99.90;;;;;;7281057;32;20167;-59
2023/07/27 15:25:04;;;;;;;0.80;0.65;;;18.20;99.90;;;;;;7279031;32;20283;-57
2023/07/27 15:29:06;;;;;;;1.17;0.70;;;18.10;99.90;;;;;;7278460;32;20167;-57
2023/07/27 15:33:08;;;;;;;2.33;0.50;;;18.20;99.90;;;;;;7281727;32;20192;-57
2023/07/27 15:37:09;;;;;;;0.93;0.82;;;18.10;99.90;;;;;;7280000;32;20188;-57
2023/07/27 15:41:11;;;;;;;1.77;0.70;;;18.00;99.90;;;;;;7279585;32;20147;-58
2023/07/27 15:45:13;;;;;;;2.28;0.95;;;18.00;99.90;;;;;;7284200;32;20136;-57
2023/07/27 15:49:15;;;;;;;2.45;1.00;;;17.80;99.90;;;;;;7289669;32;20194;-57
2023/07/27 15:53:16;;;;;;;2.10;1.17;;;17.80;99.90;;;;;;7287651;32;20130;-57
2023/07/27 15:57:18;;;;;;;1.40;1.30;;;17.70;99.90;;;;;;7279153;32;20242;-58
2023/07/27 16:01:21;;;;;;;2.65;1.83;;;17.70;99.90;;;;;;7278889;32;20131;-58
2023/07/27 16:05:24;;;;;;;6.10;1.48;;;17.70;99.90;;;;;;7278598;32;20138;-57
2023/07/27 16:09:25;;;;;;;3.58;1.70;;;17.70;99.90;;;;;;7281493;32;20169;-57
2023/07/27 16:13:27;;;;;;;3.22;1.33;;;17.70;99.90;;;;;;7280546;32;20172;-58
2023/07/27 16:17:29;;;;;;;3.42;1.60;;;17.70;99.90;;;;;;7282904;32;20116;-57
2023/07/27 16:21:31;;;;;;;1.73;1.52;;;17.70;99.90;;;;;;7280118;32;20168;-59
2023/07/27 16:25:33;;;;;;;1.67;1.30;;;17.70;99.90;;;;;;7277283;32;20469;-57
2023/07/27 16:29:35;;;;;;;1.73;1.27;;;17.70;99.90;;;;;;7288586;32;20207;-57
2023/07/27 16:33:37;;;;;;;1.85;1.48;;;17.60;99.90;;;;;;7285943;32;20113;-57
2023/07/27 16:37:39;;;;;;;2.90;1.75;;;17.70;99.90;;;;;;7281495;32;20135;-58
2023/07/27 16:41:40;;;;;;;3.72;1.65;;;17.70;99.90;;;;;;7280665;32;20220;-58
2023/07/27 16:45:42;;;;;;;3.95;1.67;;;17.70;99.90;;;;;;7286013;32;20120;-57
2023/07/27 16:49:44;;;;;;;2.75;1.35;;;17.70;99.90;;;;;;7279409;32;20407;-56
2023/07/27 16:53:46;;;;;;;2.97;1.23;;;17.70;99.90;;;;;;7277593;32;20143;-57
2023/07/27 16:57:47;;;;;;;3.00;1.50;;;17.70;99.90;;;;;;7282124;32;20400;-57
2023/07/27 17:01:49;;;;;;;2.85;1.30;;;17.70;99.90;;;;;;7278566;32;20134;-57
2023/07/27 17:05:51;;;;;;;1.90;1.25;;;17.70;99.90;;;;;;7276986;32;20281;-57
2023/07/27 17:09:53;;;;;;;1.62;0.93;;;17.70;99.90;;;;;;7278430;32;20116;-57
2023/07/27 17:13:54;;;;;;;2.62;1.40;;;17.70;99.90;;;;;;7283399;32;20133;-57
2023/07/27 17:17:56;;;;;;;1.95;1.27;;;17.70;99.90;;;;;;7285656;32;20130;-57
2023/07/27 17:21:58;;;;;;;1.20;0.80;;;17.80;99.90;;;;;;7277715;32;20116;-57
2023/07/27 17:26:01;;;;;;;1.00;0.60;;;17.80;99.90;;;;;;7277357;32;20120;-57
2023/07/27 17:30:03;;;;;;;4.72;0.90;;;17.80;99.90;;;;;;7265134;32;20262;-56
2023/07/27 17:34:05;;;;;;;0.77;0.77;;;17.70;99.90;;;;;;7286306;32;20115;-57
2023/07/27 17:38:07;;;;;;;1.00;0.80;;;17.80;99.90;;;;;;7289389;32;20126;-57
2023/07/27 17:42:08;;;;;;;1.33;0.73;;;17.70;99.90;;;;;;7290196;32;20120;-57
2023/07/27 17:46:10;;;;;;;1.20;0.82;;;17.70;99.90;;;;;;7295273;32;20571;-57
2023/07/27 17:50:12;;;;;;;3.45;0.50;;;17.70;99.90;;;;;;7281944;32;20140;-58
2023/07/27 17:54:14;;;;;;;2.58;0.80;;;17.70;99.90;;;;;;7284690;32;20584;-57
2023/07/27 17:58:15;;;;;;;2.20;0.93;;;17.70;99.90;;;;;;7286023;32;20285;-57
2023/07/27 18:02:17;;;;;;;1.02;0.70;;;17.70;99.90;;;;;;7287968;32;20161;-59
2023/07/27 18:06:20;;;;;;;0.95;0.80;;;17.70;99.90;;;;;;7281598;32;20134;-58
2023/07/27 18:10:22;;;;;;;0.75;0.60;;;17.70;99.90;;;;;;7284671;32;20116;-57
2023/07/27 18:14:24;;;;;;;2.12;0.90;;;17.70;99.90;;;;;;7293309;32;20139;-58
2023/07/27 18:18:26;;;;;;;1.50;0.90;;;17.70;99.90;;;;;;7282053;32;20522;-57
2023/07/27 18:22:30;;;;;;;2.53;0.90;;;17.60;99.90;;;;;;7286521;32;20159;-57
2023/07/27 18:26:31;;;;;;;1.45;0.90;;;17.50;99.90;;;;;;7289189;32;20218;-57
2023/07/27 18:30:35;;;;;;;4.18;1.10;;;17.50;99.90;;;;;;7281768;32;20207;-56
2023/07/27 18:34:37;;;;;;;4.22;1.10;;;17.40;99.90;;;;;;7286770;32;20130;-58
2023/07/27 18:38:39;;;;;;;3.37;1.30;;;17.50;99.90;;;;;;7283830;32;20706;-57
2023/07/27 18:42:43;;;;;;;2.28;1.30;;;17.50;99.90;;;;;;7280922;32;20293;-56
2023/07/27 18:46:44;;;;;;;7.40;1.58;;;17.40;99.90;;;;;;7279515;32;20133;-57
2023/07/27 18:50:46;;;;;;;3.05;1.33;;;17.40;99.90;;;;;;7280587;32;20221;-56
2023/07/27 18:54:48;;;;;;;3.65;1.20;;;17.40;99.90;;;;;;7282285;32;20671;-57
2023/07/27 19:03:54;;;;;;;2.28;1.27;;;17.40;99.90;;;;;;7278090;32;20095;-57
2023/07/27 19:07:55;;;;;;;1.95;1.33;;;17.40;99.90;;;;;;7296035;32;20378;-57
2023/07/27 19:11:57;;;;;;;1.52;1.25;;;17.40;99.90;;;;;;7286865;32;20205;-57
2023/07/27 19:16:00;;;;;;;2.15;1.10;;;17.40;99.90;;;;;;7293528;32;20218;-57
2023/07/27 19:20:02;;;;;;;1.58;1.12;;;17.40;99.90;;;;;;7298064;32;20108;-57
2023/07/27 19:24:04;;;;;;;2.87;1.40;;;17.40;99.90;;;;;;7300092;32;20127;-57
2023/07/27 19:28:07;;;;;;;2.67;1.33;;;17.40;99.90;;;;;;7292840;32;20222;-57
2023/07/27 19:32:09;;;;;;;1.60;1.50;;;17.30;99.90;;;;;;7280861;32;20138;-58
2023/07/27 19:36:11;;;;;;;1.87;1.20;;;17.40;99.90;;;;;;7292582;32;20131;-57
2023/07/27 19:40:12;;;;;;;2.28;1.50;;;17.40;99.90;;;;;;7287163;32;20229;-55
2023/07/27 19:44:14;;;;;;;2.20;1.45;;;17.40;99.90;;;;;;7270746;32;20185;-55
2023/07/27 19:48:18;;;;;;;2.72;1.05;;;17.40;99.90;;;;;;7290562;32;20258;-56
2023/07/27 19:52:20;;;;;;;4.55;1.33;;;17.30;99.90;;;;;;7286977;32;20157;-56
2023/07/27 19:56:22;;;;;;;2.28;1.40;;;17.40;99.90;;;;;;7285555;32;20142;-56
2023/07/27 20:00:25;;;;;;;2.05;1.42;;;17.40;99.90;;;;;;7290032;32;20100;-56
2023/07/27 20:04:27;;;;;;;5.65;1.77;;;17.40;99.90;;;;;;7294156;32;20141;-55
2023/07/27 20:08:28;;;;;;;4.78;1.20;;;17.40;99.90;;;;;;7285759;32;20107;-56
2023/07/27 20:12:48;;;;;;;3.35;1.20;;;17.30;99.90;;;;;;7287790;32;20616;-56
2023/07/27 20:16:50;;;;;;;2.62;1.20;;;17.30;99.90;;;;;;7283494;32;20116;-56
2023/07/27 20:20:51;;;;;;;1.50;1.12;;;17.30;99.90;;;;;;7296552;32;20320;-55
2023/07/27 20:24:53;;;;;;;3.67;1.20;;;17.30;99.90;;;;;;7291092;32;20507;-56
2023/07/27 20:28:55;;;;;;;1.40;1.20;;;17.30;99.90;;;;;;7288365;32;20100;-57
2023/07/27 20:32:57;;;;;;;2.67;1.23;;;17.30;99.90;;;;;;7287758;32;20203;-56
2023/07/27 20:36:58;;;;;;;2.62;1.50;;;17.30;99.90;;;;;;7289749;32;20213;-57
2023/07/27 20:41:08;;;;;;;1.67;1.40;;;17.20;99.90;;;;;;7296722;32;20176;-56
2023/07/27 20:45:10;;;;;;;2.75;1.42;;;17.20;99.90;;;;;;7279197;32;20116;-56
2023/07/27 20:49:11;;;;;;;3.12;1.50;;;17.20;99.90;;;;;;7284005;32;20131;-56
2023/07/27 20:53:15;;;;;;;2.20;1.42;;;17.20;99.90;;;;;;7289114;32;20162;-56
2023/07/27 20:57:17;;;;;;;3.55;1.70;;;17.20;99.90;;;;;;7292158;32;20191;-56
2023/07/27 21:01:18;;;;;;;2.90;1.45;;;17.20;99.90;;;;;;7290538;32;20203;-56
2023/07/27 21:05:20;;;;;;;2.03;1.70;;;17.20;99.90;;;;;;7299438;32;20196;-56
2023/07/27 21:09:22;;;;;;;7.12;2.25;;;17.20;99.90;;;;;;7308970;32;20115;-56
2023/07/27 21:13:23;;;;;;;2.80;2.00;;;17.20;99.90;;;;;;7288259;32;20266;-57